sensor_id;sensor_type;location;lat;lon;timestamp;pressure;altitude;pressure_sealevel;temperature;humidity
65175;BME280;51761;42.126;24.752;2023-02-22T00:00:09;99353.94;;;15.43;31.53
65175;BME280;51761;42.126;24.752;2023-02-22T00:02:47;99359.13;;;15.54;31.74
65175;BME280;51761;42.126;24.752;2023-02-22T00:05:16;99367.72;;;15.50;31.56
65175;BME280;51761;42.126;24.752;2023-02-22T00:07:47;99364.56;;;15.48;31.73
65175;BME280;51761;42.126;24.752;2023-02-22T00:10:15;99361.31;;;15.50;31.75
65175;BME280;51761;42.126;24.752;2023-02-22T00:12:45;99370.91;;;15.61;31.47
65175;BME280;51761;42.126;24.752;2023-02-22T00:15:13;99361.16;;;15.53;31.56
65175;BME280;51761;42.126;24.752;2023-02-22T00:17:39;99355.53;;;15.53;31.66
65175;BME280;51761;42.126;24.752;2023-02-22T00:20:05;99355.38;;;15.48;31.62
65175;BME280;51761;42.126;24.752;2023-02-22T00:22:31;99373.88;;;15.67;31.50
65175;BME280;51761;42.126;24.752;2023-02-22T00:24:57;99370.75;;;15.65;31.43
65175;BME280;51761;42.126;24.752;2023-02-22T00:27:23;99366.56;;;15.69;31.50
65175;BME280;51761;42.126;24.752;2023-02-22T00:29:49;99380.94;;;15.71;31.26
65175;BME280;51761;42.126;24.752;2023-02-22T00:32:15;99368.13;;;15.70;31.32
65175;BME280;51761;42.126;24.752;2023-02-22T00:34:40;99351.78;;;15.56;31.70
65175;BME280;51761;42.126;24.752;2023-02-22T00:37:09;99364.25;;;15.77;31.41
65175;BME280;51761;42.126;24.752;2023-02-22T00:39:34;99354.50;;;15.69;31.49
65175;BME280;51761;42.126;24.752;2023-02-22T00:42:00;99361.56;;;15.73;31.32
65175;BME280;51761;42.126;24.752;2023-02-22T00:44:26;99371.13;;;15.76;31.27
65175;BME280;51761;42.126;24.752;2023-02-22T00:46:52;99342.91;;;15.67;31.44
65175;BME280;51761;42.126;24.752;2023-02-22T00:49:18;99364.38;;;15.73;31.60
65175;BME280;51761;42.126;24.752;2023-02-22T00:51:43;99354.66;;;15.65;31.34
65175;BME280;51761;42.126;24.752;2023-02-22T00:54:09;99363.13;;;15.74;31.29
65175;BME280;51761;42.126;24.752;2023-02-22T00:56:35;99366.41;;;15.73;31.55
65175;BME280;51761;42.126;24.752;2023-02-22T00:59:02;99369.06;;;15.67;31.67
65175;BME280;51761;42.126;24.752;2023-02-22T01:01:28;99370.31;;;15.66;31.84
65175;BME280;51761;42.126;24.752;2023-02-22T01:03:53;99375.00;;;15.69;31.88
65175;BME280;51761;42.126;24.752;2023-02-22T01:06:19;99365.41;;;15.58;31.93
65175;BME280;51761;42.126;24.752;2023-02-22T01:08:46;99363.19;;;15.53;32.05
65175;BME280;51761;42.126;24.752;2023-02-22T01:11:13;99376.06;;;15.63;32.11
65175;BME280;51761;42.126;24.752;2023-02-22T01:13:39;99377.03;;;15.69;32.15
65175;BME280;51761;42.126;24.752;2023-02-22T01:16:05;99377.31;;;15.62;32.24
65175;BME280;51761;42.126;24.752;2023-02-22T01:18:36;99371.03;;;15.58;32.40
65175;BME280;51761;42.126;24.752;2023-02-22T01:21:05;99376.97;;;15.51;32.42
65175;BME280;51761;42.126;24.752;2023-02-22T01:23:31;99379.28;;;15.52;32.40
65175;BME280;51761;42.126;24.752;2023-02-22T01:25:57;99363.63;;;15.42;32.60
65175;BME280;51761;42.126;24.752;2023-02-22T01:28:22;99372.47;;;15.32;32.75
65175;BME280;51761;42.126;24.752;2023-02-22T01:30:48;99373.03;;;15.27;32.92
65175;BME280;51761;42.126;24.752;2023-02-22T01:33:14;99369.06;;;15.15;32.97
65175;BME280;51761;42.126;24.752;2023-02-22T01:35:41;99368.47;;;15.20;32.99
65175;BME280;51761;42.126;24.752;2023-02-22T01:38:08;99356.56;;;15.16;33.01
65175;BME280;51761;42.126;24.752;2023-02-22T01:40:40;99348.09;;;15.07;33.19
65175;BME280;51761;42.126;24.752;2023-02-22T01:45:48;99355.28;;;15.08;33.05
65175;BME280;51761;42.126;24.752;2023-02-22T01:48:19;99346.91;;;14.96;33.22
65175;BME280;51761;42.126;24.752;2023-02-22T01:53:28;99345.91;;;15.11;32.85
65175;BME280;51761;42.126;24.752;2023-02-22T01:55:56;99335.63;;;15.17;32.95
65175;BME280;51761;42.126;24.752;2023-02-22T01:58:23;99347.72;;;15.27;32.80
65175;BME280;51761;42.126;24.752;2023-02-22T02:00:50;99336.91;;;15.25;32.94
65175;BME280;51761;42.126;24.752;2023-02-22T02:03:20;99350.41;;;15.30;33.04
65175;BME280;51761;42.126;24.752;2023-02-22T02:05:49;99360.47;;;15.40;32.57
65175;BME280;51761;42.126;24.752;2023-02-22T02:08:57;99357.50;;;15.44;32.25
65175;BME280;51761;42.126;24.752;2023-02-22T02:11:25;99359.59;;;15.52;32.25
65175;BME280;51761;42.126;24.752;2023-02-22T02:13:53;99353.19;;;15.52;32.36
65175;BME280;51761;42.126;24.752;2023-02-22T02:16:32;99342.69;;;15.52;32.24
65175;BME280;51761;42.126;24.752;2023-02-22T02:18:59;99334.53;;;15.36;32.18
65175;BME280;51761;42.126;24.752;2023-02-22T02:21:54;99327.78;;;15.34;32.31
65175;BME280;51761;42.126;24.752;2023-02-22T02:24:45;99353.31;;;15.48;32.27
65175;BME280;51761;42.126;24.752;2023-02-22T02:27:18;99353.81;;;15.47;32.32
65175;BME280;51761;42.126;24.752;2023-02-22T02:37:56;99362.50;;;15.40;32.62
65175;BME280;51761;42.126;24.752;2023-02-22T02:46:09;99352.53;;;14.96;33.48
65175;BME280;51761;42.126;24.752;2023-02-22T02:48:38;99378.03;;;15.01;33.82
65175;BME280;51761;42.126;24.752;2023-02-22T02:51:07;99384.31;;;14.84;33.77
65175;BME280;51761;42.126;24.752;2023-02-22T02:53:38;99369.38;;;14.74;33.70
65175;BME280;51761;42.126;24.752;2023-02-22T02:56:05;99375.81;;;14.75;33.73
65175;BME280;51761;42.126;24.752;2023-02-22T02:58:32;99363.09;;;14.70;33.30
65175;BME280;51761;42.126;24.752;2023-02-22T03:01:00;99372.28;;;14.83;33.36
65175;BME280;51761;42.126;24.752;2023-02-22T03:03:46;99373.38;;;14.86;33.33
65175;BME280;51761;42.126;24.752;2023-02-22T03:06:21;99382.88;;;14.79;33.72
65175;BME280;51761;42.126;24.752;2023-02-22T03:08:58;99376.06;;;14.68;33.41
65175;BME280;51761;42.126;24.752;2023-02-22T03:11:48;99360.78;;;14.69;32.92
65175;BME280;51761;42.126;24.752;2023-02-22T03:17:19;99380.72;;;14.83;32.75
65175;BME280;51761;42.126;24.752;2023-02-22T03:19:52;99390.72;;;14.84;32.95
65175;BME280;51761;42.126;24.752;2023-02-22T03:22:37;99390.50;;;14.79;33.25
65175;BME280;51761;42.126;24.752;2023-02-22T03:25:15;99400.13;;;14.69;33.74
65175;BME280;51761;42.126;24.752;2023-02-22T03:27:56;99391.09;;;14.52;34.15
65175;BME280;51761;42.126;24.752;2023-02-22T03:30:35;99380.25;;;14.29;34.49
65175;BME280;51761;42.126;24.752;2023-02-22T03:33:12;99398.09;;;14.35;33.97
65175;BME280;51761;42.126;24.752;2023-02-22T03:35:50;99407.00;;;14.34;34.09
65175;BME280;51761;42.126;24.752;2023-02-22T03:38:23;99406.88;;;14.25;34.41
65175;BME280;51761;42.126;24.752;2023-02-22T03:40:53;99416.53;;;14.24;34.43
65175;BME280;51761;42.126;24.752;2023-02-22T03:43:28;99427.59;;;14.19;34.26
65175;BME280;51761;42.126;24.752;2023-02-22T03:45:56;99420.81;;;14.04;34.88
65175;BME280;51761;42.126;24.752;2023-02-22T03:48:42;99408.81;;;13.78;35.83
65175;BME280;51761;42.126;24.752;2023-02-22T03:51:12;99419.25;;;13.65;36.25
65175;BME280;51761;42.126;24.752;2023-02-22T03:53:41;99425.84;;;13.46;36.32
65175;BME280;51761;42.126;24.752;2023-02-22T03:56:11;99427.94;;;13.30;36.80
65175;BME280;51761;42.126;24.752;2023-02-22T03:58:40;99423.13;;;13.30;37.21
65175;BME280;51761;42.126;24.752;2023-02-22T04:01:12;99427.03;;;13.08;37.14
65175;BME280;51761;42.126;24.752;2023-02-22T04:03:38;99429.13;;;13.04;37.28
65175;BME280;51761;42.126;24.752;2023-02-22T04:06:04;99430.34;;;13.03;37.43
65175;BME280;51761;42.126;24.752;2023-02-22T04:08:30;99431.56;;;13.02;37.79
65175;BME280;51761;42.126;24.752;2023-02-22T04:10:56;99432.13;;;12.97;37.76
65175;BME280;51761;42.126;24.752;2023-02-22T04:13:21;99416.81;;;12.85;37.56
65175;BME280;51761;42.126;24.752;2023-02-22T04:15:46;99427.09;;;12.76;37.89
65175;BME280;51761;42.126;24.752;2023-02-22T04:18:12;99428.75;;;12.73;37.87
65175;BME280;51761;42.126;24.752;2023-02-22T04:20:38;99408.75;;;12.59;37.68
65175;BME280;51761;42.126;24.752;2023-02-22T04:23:04;99421.88;;;12.62;37.80
65175;BME280;51761;42.126;24.752;2023-02-22T04:25:30;99423.88;;;12.61;37.44
65175;BME280;51761;42.126;24.752;2023-02-22T04:27:56;99426.50;;;12.68;37.72
65175;BME280;51761;42.126;24.752;2023-02-22T04:30:22;99412.44;;;12.56;37.48
65175;BME280;51761;42.126;24.752;2023-02-22T04:32:47;99430.75;;;12.73;37.65
65175;BME280;51761;42.126;24.752;2023-02-22T04:35:13;99417.59;;;12.57;37.58
65175;BME280;51761;42.126;24.752;2023-02-22T04:37:39;99428.06;;;12.69;38.05
65175;BME280;51761;42.126;24.752;2023-02-22T04:40:05;99433.56;;;12.73;38.21
65175;BME280;51761;42.126;24.752;2023-02-22T04:42:35;99412.91;;;12.67;37.13
65175;BME280;51761;42.126;24.752;2023-02-22T04:45:02;99433.72;;;12.82;37.22
65175;BME280;51761;42.126;24.752;2023-02-22T04:47:28;99423.91;;;12.90;36.70
65175;BME280;51761;42.126;24.752;2023-02-22T04:49:54;99426.09;;;12.82;37.12
65175;BME280;51761;42.126;24.752;2023-02-22T04:52:20;99418.28;;;12.90;36.93
65175;BME280;51761;42.126;24.752;2023-02-22T04:54:45;99427.59;;;12.87;36.47
65175;BME280;51761;42.126;24.752;2023-02-22T04:57:11;99415.47;;;12.90;36.33
65175;BME280;51761;42.126;24.752;2023-02-22T04:59:36;99420.03;;;13.00;36.15
65175;BME280;51761;42.126;24.752;2023-02-22T05:02:02;99404.09;;;12.97;36.25
65175;BME280;51761;42.126;24.752;2023-02-22T05:04:27;99426.91;;;13.11;35.87
65175;BME280;51761;42.126;24.752;2023-02-22T05:06:53;99422.66;;;13.07;36.21
65175;BME280;51761;42.126;24.752;2023-02-22T05:09:19;99393.44;;;12.92;35.97
65175;BME280;51761;42.126;24.752;2023-02-22T05:11:44;99424.22;;;13.08;36.40
65175;BME280;51761;42.126;24.752;2023-02-22T05:14:10;99423.00;;;13.09;36.22
65175;BME280;51761;42.126;24.752;2023-02-22T05:16:36;99428.03;;;13.14;36.09
65175;BME280;51761;42.126;24.752;2023-02-22T05:19:02;99401.44;;;13.06;35.88
65175;BME280;51761;42.126;24.752;2023-02-22T05:21:27;99421.56;;;13.29;36.09
65175;BME280;51761;42.126;24.752;2023-02-22T05:23:53;99422.16;;;13.37;35.70
65175;BME280;51761;42.126;24.752;2023-02-22T05:26:18;99432.81;;;13.42;35.63
65175;BME280;51761;42.126;24.752;2023-02-22T05:28:44;99426.97;;;13.49;35.00
65175;BME280;51761;42.126;24.752;2023-02-22T05:31:09;99435.41;;;13.74;34.92
65175;BME280;51761;42.126;24.752;2023-02-22T05:33:35;99433.53;;;13.83;34.55
65175;BME280;51761;42.126;24.752;2023-02-22T05:36:01;99440.25;;;13.98;34.56
65175;BME280;51761;42.126;24.752;2023-02-22T05:38:27;99443.72;;;14.15;34.36
65175;BME280;51761;42.126;24.752;2023-02-22T05:40:52;99431.38;;;14.12;34.24
65175;BME280;51761;42.126;24.752;2023-02-22T05:43:18;99440.47;;;14.28;33.90
65175;BME280;51761;42.126;24.752;2023-02-22T05:45:44;99441.88;;;14.45;33.95
65175;BME280;51761;42.126;24.752;2023-02-22T05:48:10;99443.91;;;14.57;33.84
65175;BME280;51761;42.126;24.752;2023-02-22T05:50:37;99440.81;;;14.64;33.86
65175;BME280;51761;42.126;24.752;2023-02-22T05:53:02;99439.34;;;14.72;33.42
65175;BME280;51761;42.126;24.752;2023-02-22T05:55:30;99440.69;;;14.80;33.80
65175;BME280;51761;42.126;24.752;2023-02-22T05:57:55;99444.47;;;14.86;33.63
65175;BME280;51761;42.126;24.752;2023-02-22T06:00:27;99454.22;;;14.94;33.59
65175;BME280;51761;42.126;24.752;2023-02-22T06:05:19;99449.00;;;15.05;33.67
65175;BME280;51761;42.126;24.752;2023-02-22T06:07:45;99456.53;;;15.08;33.94
65175;BME280;51761;42.126;24.752;2023-02-22T06:10:10;99457.38;;;15.18;34.02
65175;BME280;51761;42.126;24.752;2023-02-22T06:12:35;99466.00;;;15.23;34.46
65175;BME280;51761;42.126;24.752;2023-02-22T06:15:01;99467.38;;;15.31;33.97
65175;BME280;51761;42.126;24.752;2023-02-22T06:17:26;99467.13;;;15.26;35.02
65175;BME280;51761;42.126;24.752;2023-02-22T06:19:52;99467.38;;;15.31;35.67
65175;BME280;51761;42.126;24.752;2023-02-22T06:22:18;99453.97;;;15.23;33.69
65175;BME280;51761;42.126;24.752;2023-02-22T06:24:44;99475.81;;;15.31;33.40
65175;BME280;51761;42.126;24.752;2023-02-22T06:27:10;99469.16;;;15.25;33.74
65175;BME280;51761;42.126;24.752;2023-02-22T06:29:35;99446.25;;;15.14;33.82
65175;BME280;51761;42.126;24.752;2023-02-22T06:32:01;99470.22;;;15.40;33.53
65175;BME280;51761;42.126;24.752;2023-02-22T06:34:26;99473.63;;;15.35;33.73
65175;BME280;51761;42.126;24.752;2023-02-22T06:36:52;99464.63;;;15.28;33.57
65175;BME280;51761;42.126;24.752;2023-02-22T06:39:17;99470.19;;;15.31;33.89
65175;BME280;51761;42.126;24.752;2023-02-22T06:41:44;99467.44;;;15.71;62.79
65175;BME280;51761;42.126;24.752;2023-02-22T06:44:11;99476.59;;;15.84;51.93
65175;BME280;51761;42.126;24.752;2023-02-22T06:46:37;99484.63;;;15.94;38.53
65175;BME280;51761;42.126;24.752;2023-02-22T06:49:04;99478.09;;;16.36;45.64
65175;BME280;51761;42.126;24.752;2023-02-22T06:51:34;99480.84;;;16.94;53.93
65175;BME280;51761;42.126;24.752;2023-02-22T06:54:01;99483.06;;;18.12;48.76
65175;BME280;51761;42.126;24.752;2023-02-22T06:56:27;99487.41;;;19.77;31.72
65175;BME280;51761;42.126;24.752;2023-02-22T06:58:52;99487.72;;;21.31;34.40
65175;BME280;51761;42.126;24.752;2023-02-22T07:01:17;99488.69;;;22.24;30.51
65175;BME280;51761;42.126;24.752;2023-02-22T07:03:43;99476.59;;;23.13;25.98
65175;BME280;51761;42.126;24.752;2023-02-22T07:06:09;99465.34;;;23.51;24.41
65175;BME280;51761;42.126;24.752;2023-02-22T07:08:35;99489.28;;;24.09;32.04
65175;BME280;51761;42.126;24.752;2023-02-22T07:11:00;99487.22;;;24.42;24.67
65175;BME280;51761;42.126;24.752;2023-02-22T07:13:26;99480.47;;;24.61;22.98
65175;BME280;51761;42.126;24.752;2023-02-22T07:15:51;99487.22;;;24.64;23.44
65175;BME280;51761;42.126;24.752;2023-02-22T07:18:17;99477.63;;;24.67;23.18
65175;BME280;51761;42.126;24.752;2023-02-22T07:20:43;99480.31;;;25.27;25.30
65175;BME280;51761;42.126;24.752;2023-02-22T07:23:08;99479.78;;;25.23;21.90
65175;BME280;51761;42.126;24.752;2023-02-22T07:25:34;99492.81;;;25.70;22.68
65175;BME280;51761;42.126;24.752;2023-02-22T07:27:59;99483.06;;;25.95;21.10
65175;BME280;51761;42.126;24.752;2023-02-22T07:30:30;99479.59;;;26.07;20.75
65175;BME280;51761;42.126;24.752;2023-02-22T07:32:57;99486.63;;;26.36;21.01
65175;BME280;51761;42.126;24.752;2023-02-22T07:35:26;99492.00;;;26.50;21.20
65175;BME280;51761;42.126;24.752;2023-02-22T07:37:52;99468.78;;;26.24;20.75
65175;BME280;51761;42.126;24.752;2023-02-22T07:40:19;99471.19;;;26.44;20.78
65175;BME280;51761;42.126;24.752;2023-02-22T07:43:05;99457.94;;;26.47;20.90
65175;BME280;51761;42.126;24.752;2023-02-22T07:45:37;99480.63;;;26.39;21.15
65175;BME280;51761;42.126;24.752;2023-02-22T07:48:04;99466.44;;;25.42;21.82
65175;BME280;51761;42.126;24.752;2023-02-22T07:50:31;99465.97;;;25.38;21.42
65175;BME280;51761;42.126;24.752;2023-02-22T07:52:58;99463.72;;;25.04;21.47
65175;BME280;51761;42.126;24.752;2023-02-22T07:55:26;99465.69;;;24.41;22.31
65175;BME280;51761;42.126;24.752;2023-02-22T07:57:55;99470.59;;;24.68;23.35
65175;BME280;51761;42.126;24.752;2023-02-22T08:00:29;99466.31;;;25.18;22.09
65175;BME280;51761;42.126;24.752;2023-02-22T08:02:57;99459.03;;;25.17;21.53
65175;BME280;51761;42.126;24.752;2023-02-22T08:05:24;99468.38;;;25.69;21.36
65175;BME280;51761;42.126;24.752;2023-02-22T08:07:50;99460.00;;;25.36;21.53
65175;BME280;51761;42.126;24.752;2023-02-22T08:10:18;99438.34;;;25.46;21.14
65175;BME280;51761;42.126;24.752;2023-02-22T08:12:44;99440.59;;;25.64;21.10
65175;BME280;51761;42.126;24.752;2023-02-22T08:15:20;99453.13;;;25.56;21.73
65175;BME280;51761;42.126;24.752;2023-02-22T08:17:45;99453.00;;;26.12;21.63
65175;BME280;51761;42.126;24.752;2023-02-22T08:20:11;99447.59;;;26.33;20.35
65175;BME280;51761;42.126;24.752;2023-02-22T08:22:37;99438.72;;;26.07;20.16
65175;BME280;51761;42.126;24.752;2023-02-22T08:25:02;99444.41;;;26.42;20.60
65175;BME280;51761;42.126;24.752;2023-02-22T08:27:29;99445.34;;;25.97;19.75
65175;BME280;51761;42.126;24.752;2023-02-22T08:29:55;99451.78;;;26.02;20.31
65175;BME280;51761;42.126;24.752;2023-02-22T08:32:22;99431.91;;;25.35;20.32
65175;BME280;51761;42.126;24.752;2023-02-22T08:34:48;99447.28;;;25.72;20.23
65175;BME280;51761;42.126;24.752;2023-02-22T08:37:14;99436.06;;;26.14;20.05
65175;BME280;51761;42.126;24.752;2023-02-22T08:39:40;99454.34;;;26.06;19.97
65175;BME280;51761;42.126;24.752;2023-02-22T08:42:06;99442.28;;;25.78;20.36
65175;BME280;51761;42.126;24.752;2023-02-22T08:44:34;99438.41;;;25.81;20.02
65175;BME280;51761;42.126;24.752;2023-02-22T08:46:59;99419.03;;;25.98;20.01
65175;BME280;51761;42.126;24.752;2023-02-22T08:49:25;99423.06;;;26.43;20.66
65175;BME280;51761;42.126;24.752;2023-02-22T08:51:50;99434.00;;;26.68;20.03
65175;BME280;51761;42.126;24.752;2023-02-22T08:54:16;99443.53;;;27.00;19.77
65175;BME280;51761;42.126;24.752;2023-02-22T08:56:42;99439.66;;;26.98;19.68
65175;BME280;51761;42.126;24.752;2023-02-22T08:59:08;99442.50;;;26.20;19.95
65175;BME280;51761;42.126;24.752;2023-02-22T09:01:33;99421.28;;;25.76;20.13
65175;BME280;51761;42.126;24.752;2023-02-22T09:03:59;99420.19;;;25.84;20.06
65175;BME280;51761;42.126;24.752;2023-02-22T09:06:25;99417.94;;;25.66;20.27
65175;BME280;51761;42.126;24.752;2023-02-22T09:08:50;99434.19;;;25.88;20.47
65175;BME280;51761;42.126;24.752;2023-02-22T09:11:15;99421.59;;;26.31;20.38
65175;BME280;51761;42.126;24.752;2023-02-22T09:13:42;99429.06;;;26.39;19.95
65175;BME280;51761;42.126;24.752;2023-02-22T09:16:08;99428.19;;;26.20;20.11
65175;BME280;51761;42.126;24.752;2023-02-22T09:18:33;99415.81;;;26.66;20.00
65175;BME280;51761;42.126;24.752;2023-02-22T09:20:59;99426.72;;;27.34;20.48
65175;BME280;51761;42.126;24.752;2023-02-22T09:23:25;99414.63;;;27.41;19.37
65175;BME280;51761;42.126;24.752;2023-02-22T09:25:51;99418.56;;;27.19;19.61
65175;BME280;51761;42.126;24.752;2023-02-22T09:28:17;99431.44;;;27.50;19.61
65175;BME280;51761;42.126;24.752;2023-02-22T09:30:42;99426.09;;;27.77;19.34
65175;BME280;51761;42.126;24.752;2023-02-22T09:33:13;99424.38;;;27.87;19.46
65175;BME280;51761;42.126;24.752;2023-02-22T09:35:41;99427.63;;;27.42;18.97
65175;BME280;51761;42.126;24.752;2023-02-22T09:38:11;99424.22;;;27.62;20.00
65175;BME280;51761;42.126;24.752;2023-02-22T09:40:40;99425.47;;;27.84;18.93
65175;BME280;51761;42.126;24.752;2023-02-22T09:46:28;99417.19;;;28.12;19.41
65175;BME280;51761;42.126;24.752;2023-02-22T09:49:08;99411.09;;;28.16;18.74
65175;BME280;51761;42.126;24.752;2023-02-22T09:54:05;99411.66;;;28.14;18.07
65175;BME280;51761;42.126;24.752;2023-02-22T09:56:36;99400.72;;;28.70;18.86
65175;BME280;51761;42.126;24.752;2023-02-22T09:59:05;99400.59;;;28.63;18.46
65175;BME280;51761;42.126;24.752;2023-02-22T10:01:39;99401.28;;;28.56;18.54
65175;BME280;51761;42.126;24.752;2023-02-22T10:04:21;99401.38;;;28.63;18.87
65175;BME280;51761;42.126;24.752;2023-02-22T10:07:18;99395.41;;;28.61;18.06
65175;BME280;51761;42.126;24.752;2023-02-22T10:09:46;99383.31;;;27.24;18.85
65175;BME280;51761;42.126;24.752;2023-02-22T10:17:43;99364.47;;;26.68;19.28
65175;BME280;51761;42.126;24.752;2023-02-22T10:20:41;99373.81;;;27.48;19.64
65175;BME280;51761;42.126;24.752;2023-02-22T10:23:35;99373.06;;;27.97;19.43
65175;BME280;51761;42.126;24.752;2023-02-22T10:26:14;99368.91;;;27.61;18.68
65175;BME280;51761;42.126;24.752;2023-02-22T10:29:04;99372.84;;;27.95;19.32
65175;BME280;51761;42.126;24.752;2023-02-22T10:31:38;99347.47;;;28.12;18.30
65175;BME280;51761;42.126;24.752;2023-02-22T10:34:20;99353.31;;;28.51;19.25
65175;BME280;51761;42.126;24.752;2023-02-22T10:36:53;99354.94;;;28.85;19.36
65175;BME280;51761;42.126;24.752;2023-02-22T10:39:26;99344.75;;;29.10;19.71
65175;BME280;51761;42.126;24.752;2023-02-22T10:41:56;99327.03;;;29.19;18.27
65175;BME280;51761;42.126;24.752;2023-02-22T10:44:22;99316.34;;;29.40;17.03
65175;BME280;51761;42.126;24.752;2023-02-22T10:46:48;99312.88;;;29.21;17.42
65175;BME280;51761;42.126;24.752;2023-02-22T10:49:20;99323.66;;;28.95;17.99
65175;BME280;51761;42.126;24.752;2023-02-22T10:52:00;99320.13;;;29.35;18.50
65175;BME280;51761;42.126;24.752;2023-02-22T10:54:31;99300.06;;;29.09;17.89
65175;BME280;51761;42.126;24.752;2023-02-22T10:56:59;99306.84;;;28.86;17.75
65175;BME280;51761;42.126;24.752;2023-02-22T10:59:31;99306.09;;;28.33;18.28
65175;BME280;51761;42.126;24.752;2023-02-22T11:01:59;99311.63;;;28.44;18.08
65175;BME280;51761;42.126;24.752;2023-02-22T11:04:26;99291.19;;;28.61;18.56
65175;BME280;51761;42.126;24.752;2023-02-22T11:09:23;99299.78;;;28.48;17.77
65175;BME280;51761;42.126;24.752;2023-02-22T11:12:06;99295.72;;;28.56;19.01
65175;BME280;51761;42.126;24.752;2023-02-22T11:14:33;99281.13;;;28.67;17.55
65175;BME280;51761;42.126;24.752;2023-02-22T11:17:00;99282.41;;;28.92;18.66
65175;BME280;51761;42.126;24.752;2023-02-22T11:19:30;99285.41;;;28.74;18.51
65175;BME280;51761;42.126;24.752;2023-02-22T11:22:07;99255.34;;;28.75;18.07
65175;BME280;51761;42.126;24.752;2023-02-22T11:27:36;99287.78;;;28.36;18.12
65175;BME280;51761;42.126;24.752;2023-02-22T11:32:57;99250.75;;;28.46;18.58
65175;BME280;51761;42.126;24.752;2023-02-22T11:35:37;99251.28;;;28.57;17.91
65175;BME280;51761;42.126;24.752;2023-02-22T11:38:12;99260.78;;;28.52;18.01
65175;BME280;51761;42.126;24.752;2023-02-22T11:40:40;99251.59;;;28.80;19.80
65175;BME280;51761;42.126;24.752;2023-02-22T11:43:17;99254.22;;;28.78;17.83
65175;BME280;51761;42.126;24.752;2023-02-22T11:45:57;99249.03;;;28.89;16.87
65175;BME280;51761;42.126;24.752;2023-02-22T11:48:29;99230.34;;;28.83;16.62
65175;BME280;51761;42.126;24.752;2023-02-22T11:57:20;99240.56;;;28.45;17.66
65175;BME280;51761;42.126;24.752;2023-02-22T12:08:46;99228.09;;;28.16;20.21
65175;BME280;51761;42.126;24.752;2023-02-22T12:11:22;99224.44;;;28.16;17.15
65175;BME280;51761;42.126;24.752;2023-02-22T12:16:40;99224.56;;;27.84;17.62
65175;BME280;51761;42.126;24.752;2023-02-22T12:21:52;99199.06;;;27.94;18.34
65175;BME280;51761;42.126;24.752;2023-02-22T12:24:24;99199.91;;;27.89;17.73
65175;BME280;51761;42.126;24.752;2023-02-22T12:27:14;99203.22;;;28.19;18.93
65175;BME280;51761;42.126;24.752;2023-02-22T12:29:47;99185.47;;;28.07;19.21
65175;BME280;51761;42.126;24.752;2023-02-22T12:34:49;99203.78;;;28.04;17.71
65175;BME280;51761;42.126;24.752;2023-02-22T12:37:28;99195.19;;;28.17;17.29
65175;BME280;51761;42.126;24.752;2023-02-22T12:43:10;99195.63;;;28.47;17.71
65175;BME280;51761;42.126;24.752;2023-02-22T12:45:50;99180.81;;;28.43;17.27
65175;BME280;51761;42.126;24.752;2023-02-22T12:50:49;99173.53;;;28.16;17.73
65175;BME280;51761;42.126;24.752;2023-02-22T12:53:54;99173.44;;;27.96;17.63
65175;BME280;51761;42.126;24.752;2023-02-22T12:56:33;99183.81;;;27.73;18.21
65175;BME280;51761;42.126;24.752;2023-02-22T13:02:19;99179.94;;;27.96;17.93
65175;BME280;51761;42.126;24.752;2023-02-22T13:04:47;99164.59;;;28.07;17.67
65175;BME280;51761;42.126;24.752;2023-02-22T13:19:04;99162.53;;;27.81;18.75
65175;BME280;51761;42.126;24.752;2023-02-22T13:24:00;99165.28;;;27.30;18.55
65175;BME280;51761;42.126;24.752;2023-02-22T13:29:04;99159.09;;;27.07;18.98
65175;BME280;51761;42.126;24.752;2023-02-22T13:48:36;99160.09;;;26.78;19.14
65175;BME280;51761;42.126;24.752;2023-02-22T13:54:34;99158.25;;;26.81;19.01
65175;BME280;51761;42.126;24.752;2023-02-22T13:57:02;99159.44;;;26.54;19.15
65175;BME280;51761;42.126;24.752;2023-02-22T13:59:34;99150.16;;;26.48;19.83
65175;BME280;51761;42.126;24.752;2023-02-22T14:02:02;99159.25;;;26.46;18.85
65175;BME280;51761;42.126;24.752;2023-02-22T14:17:48;99164.53;;;26.24;19.29
65175;BME280;51761;42.126;24.752;2023-02-22T14:20:35;99145.47;;;26.08;19.63
65175;BME280;51761;42.126;24.752;2023-02-22T14:23:27;99159.31;;;26.04;19.98
65175;BME280;51761;42.126;24.752;2023-02-22T14:29:01;99143.88;;;25.65;19.57
65175;BME280;51761;42.126;24.752;2023-02-22T14:31:29;99153.63;;;25.56;19.73
65175;BME280;51761;42.126;24.752;2023-02-22T14:34:03;99153.28;;;25.36;20.62
65175;BME280;51761;42.126;24.752;2023-02-22T14:36:33;99160.41;;;25.29;21.43
65175;BME280;51761;42.126;24.752;2023-02-22T14:39:17;99158.38;;;25.24;20.69
65175;BME280;51761;42.126;24.752;2023-02-22T14:41:48;99145.72;;;25.09;20.72
65175;BME280;51761;42.126;24.752;2023-02-22T14:44:19;99157.47;;;25.05;20.26
65175;BME280;51761;42.126;24.752;2023-02-22T14:46:47;99147.66;;;24.95;20.12
65175;BME280;51761;42.126;24.752;2023-02-22T14:49:16;99137.88;;;24.85;20.82
65175;BME280;51761;42.126;24.752;2023-02-22T14:51:52;99155.66;;;25.02;20.08
65175;BME280;51761;42.126;24.752;2023-02-22T14:54:48;99158.91;;;24.88;20.63
65175;BME280;51761;42.126;24.752;2023-02-22T15:02:47;99153.69;;;24.57;20.98
65175;BME280;51761;42.126;24.752;2023-02-22T15:05:15;99135.44;;;24.25;20.89
65175;BME280;51761;42.126;24.752;2023-02-22T15:07:58;99154.84;;;24.32;21.30
65175;BME280;51761;42.126;24.752;2023-02-22T15:10:26;99161.63;;;24.23;21.26
65175;BME280;51761;42.126;24.752;2023-02-22T15:12:58;99141.84;;;23.85;21.69
65175;BME280;51761;42.126;24.752;2023-02-22T15:15:40;99160.28;;;23.68;22.18
65175;BME280;51761;42.126;24.752;2023-02-22T15:18:34;99152.00;;;23.59;22.53